sensor_id;sensor_type;location;lat;lon;timestamp;temperature;humidity
34985;DHT22;21190;58.750;17.004;2023-05-10T00:00:25;8.60;99.90
34985;DHT22;21190;58.750;17.004;2023-05-10T00:02:52;8.60;99.90
34985;DHT22;21190;58.750;17.004;2023-05-10T00:05:19;8.60;99.90
34985;DHT22;21190;58.750;17.004;2023-05-10T00:07:46;8.60;99.90
34985;DHT22;21190;58.750;17.004;2023-05-10T00:10:13;8.60;99.90
34985;DHT22;21190;58.750;17.004;2023-05-10T00:12:40;8.60;99.90
34985;DHT22;21190;58.750;17.004;2023-05-10T00:15:08;8.50;99.90
34985;DHT22;21190;58.750;17.004;2023-05-10T00:17:35;8.50;99.90
34985;DHT22;21190;58.750;17.004;2023-05-10T00:20:02;8.40;99.90
34985;DHT22;21190;58.750;17.004;2023-05-10T00:22:31;8.40;99.90
34985;DHT22;21190;58.750;17.004;2023-05-10T00:24:59;8.30;99.90
34985;DHT22;21190;58.750;17.004;2023-05-10T00:27:26;8.30;99.90
34985;DHT22;21190;58.750;17.004;2023-05-10T00:29:53;8.30;99.90
34985;DHT22;21190;58.750;17.004;2023-05-10T00:32:20;8.30;99.90
34985;DHT22;21190;58.750;17.004;2023-05-10T00:34:47;8.30;99.90
34985;DHT22;21190;58.750;17.004;2023-05-10T00:37:14;8.20;99.90
34985;DHT22;21190;58.750;17.004;2023-05-10T00:39:41;8.20;99.90
34985;DHT22;21190;58.750;17.004;2023-05-10T00:42:08;8.10;99.90
34985;DHT22;21190;58.750;17.004;2023-05-10T00:44:35;8.10;99.90
34985;DHT22;21190;58.750;17.004;2023-05-10T00:47:02;8.10;99.90
34985;DHT22;21190;58.750;17.004;2023-05-10T00:49:29;8.10;99.90
34985;DHT22;21190;58.750;17.004;2023-05-10T00:51:56;8.10;99.90
34985;DHT22;21190;58.750;17.004;2023-05-10T00:54:23;8.00;99.90
34985;DHT22;21190;58.750;17.004;2023-05-10T00:56:51;8.00;99.90
34985;DHT22;21190;58.750;17.004;2023-05-10T00:59:18;8.00;99.90
34985;DHT22;21190;58.750;17.004;2023-05-10T01:01:46;7.90;99.90
34985;DHT22;21190;58.750;17.004;2023-05-10T01:04:14;7.90;99.90
34985;DHT22;21190;58.750;17.004;2023-05-10T01:06:42;7.80;99.90
34985;DHT22;21190;58.750;17.004;2023-05-10T01:09:10;7.80;99.90
34985;DHT22;21190;58.750;17.004;2023-05-10T01:11:38;7.80;99.90
34985;DHT22;21190;58.750;17.004;2023-05-10T01:14:06;7.70;99.90
34985;DHT22;21190;58.750;17.004;2023-05-10T01:16:37;7.70;99.90
34985;DHT22;21190;58.750;17.004;2023-05-10T01:19:31;7.70;99.90
34985;DHT22;21190;58.750;17.004;2023-05-10T01:27:31;7.70;99.90
34985;DHT22;21190;58.750;17.004;2023-05-10T01:35:42;7.60;99.90
34985;DHT22;21190;58.750;17.004;2023-05-10T01:38:17;7.60;99.90
34985;DHT22;21190;58.750;17.004;2023-05-10T01:41:54;7.50;99.90
34985;DHT22;21190;58.750;17.004;2023-05-10T01:43:56;7.50;99.90
34985;DHT22;21190;58.750;17.004;2023-05-10T01:46:28;7.50;99.90
34985;DHT22;21190;58.750;17.004;2023-05-10T01:49:00;7.50;99.90
34985;DHT22;21190;58.750;17.004;2023-05-10T01:51:39;7.50;99.90
34985;DHT22;21190;58.750;17.004;2023-05-10T01:54:08;7.50;99.90
34985;DHT22;21190;58.750;17.004;2023-05-10T01:56:37;7.50;99.90
34985;DHT22;21190;58.750;17.004;2023-05-10T01:59:12;7.50;99.90
34985;DHT22;21190;58.750;17.004;2023-05-10T02:01:41;7.40;99.90
34985;DHT22;21190;58.750;17.004;2023-05-10T02:04:10;7.50;99.90
34985;DHT22;21190;58.750;17.004;2023-05-10T02:06:38;7.40;99.90
34985;DHT22;21190;58.750;17.004;2023-05-10T02:09:06;7.40;99.90
34985;DHT22;21190;58.750;17.004;2023-05-10T02:11:34;7.50;99.90
34985;DHT22;21190;58.750;17.004;2023-05-10T02:14:06;7.40;99.90
34985;DHT22;21190;58.750;17.004;2023-05-10T02:16:35;7.40;99.90
34985;DHT22;21190;58.750;17.004;2023-05-10T02:19:03;7.40;99.90
34985;DHT22;21190;58.750;17.004;2023-05-10T02:21:31;7.40;99.90
34985;DHT22;21190;58.750;17.004;2023-05-10T02:24:01;7.40;99.90
34985;DHT22;21190;58.750;17.004;2023-05-10T02:26:29;7.40;99.90
34985;DHT22;21190;58.750;17.004;2023-05-10T02:28:58;7.40;99.90
34985;DHT22;21190;58.750;17.004;2023-05-10T02:31:25;7.40;99.90
34985;DHT22;21190;58.750;17.004;2023-05-10T02:33:53;7.30;99.90
34985;DHT22;21190;58.750;17.004;2023-05-10T02:36:21;7.30;99.90
34985;DHT22;21190;58.750;17.004;2023-05-10T02:38:50;7.30;99.90
34985;DHT22;21190;58.750;17.004;2023-05-10T02:41:19;7.30;99.90
34985;DHT22;21190;58.750;17.004;2023-05-10T02:43:47;7.30;99.90
34985;DHT22;21190;58.750;17.004;2023-05-10T02:46:16;7.30;99.90
34985;DHT22;21190;58.750;17.004;2023-05-10T02:48:43;7.30;99.90
34985;DHT22;21190;58.750;17.004;2023-05-10T02:51:12;7.30;99.90
34985;DHT22;21190;58.750;17.004;2023-05-10T02:53:42;7.30;99.90
34985;DHT22;21190;58.750;17.004;2023-05-10T02:56:14;7.30;99.90
34985;DHT22;21190;58.750;17.004;2023-05-10T02:58:41;7.30;99.90
34985;DHT22;21190;58.750;17.004;2023-05-10T03:01:09;7.30;99.90
34985;DHT22;21190;58.750;17.004;2023-05-10T03:03:36;7.30;99.90
34985;DHT22;21190;58.750;17.004;2023-05-10T03:06:03;7.30;99.90
34985;DHT22;21190;58.750;17.004;2023-05-10T03:08:31;7.30;99.90
34985;DHT22;21190;58.750;17.004;2023-05-10T03:13:48;7.30;99.90
34985;DHT22;21190;58.750;17.004;2023-05-10T03:16:27;7.30;99.90
34985;DHT22;21190;58.750;17.004;2023-05-10T03:19:10;7.30;99.90
34985;DHT22;21190;58.750;17.004;2023-05-10T03:21:42;7.30;99.90
34985;DHT22;21190;58.750;17.004;2023-05-10T03:24:12;7.30;99.90
34985;DHT22;21190;58.750;17.004;2023-05-10T03:26:43;7.30;99.90
34985;DHT22;21190;58.750;17.004;2023-05-10T03:29:14;7.30;99.90
34985;DHT22;21190;58.750;17.004;2023-05-10T03:31:42;7.30;99.90
34985;DHT22;21190;58.750;17.004;2023-05-10T03:34:09;7.30;99.90
34985;DHT22;21190;58.750;17.004;2023-05-10T03:36:37;7.30;99.90
34985;DHT22;21190;58.750;17.004;2023-05-10T03:39:03;7.30;99.90
34985;DHT22;21190;58.750;17.004;2023-05-10T03:41:30;7.30;99.90
34985;DHT22;21190;58.750;17.004;2023-05-10T03:43:57;7.30;99.90
34985;DHT22;21190;58.750;17.004;2023-05-10T03:46:24;7.40;99.90
34985;DHT22;21190;58.750;17.004;2023-05-10T03:48:51;7.40;99.90
34985;DHT22;21190;58.750;17.004;2023-05-10T03:51:18;7.40;99.90
34985;DHT22;21190;58.750;17.004;2023-05-10T03:53:45;7.40;99.90
34985;DHT22;21190;58.750;17.004;2023-05-10T03:56:12;7.40;99.90
34985;DHT22;21190;58.750;17.004;2023-05-10T03:58:39;7.40;99.90
34985;DHT22;21190;58.750;17.004;2023-05-10T04:01:06;7.50;99.90
34985;DHT22;21190;58.750;17.004;2023-05-10T04:03:33;7.50;99.90
34985;DHT22;21190;58.750;17.004;2023-05-10T04:06:02;7.50;99.90
34985;DHT22;21190;58.750;17.004;2023-05-10T04:08:29;7.60;99.90
34985;DHT22;21190;58.750;17.004;2023-05-10T04:11:10;7.60;99.90
34985;DHT22;21190;58.750;17.004;2023-05-10T04:13:37;7.60;99.90
34985;DHT22;21190;58.750;17.004;2023-05-10T04:16:05;7.60;99.90
34985;DHT22;21190;58.750;17.004;2023-05-10T04:18:32;7.70;99.90
34985;DHT22;21190;58.750;17.004;2023-05-10T04:20:59;7.70;99.90
34985;DHT22;21190;58.750;17.004;2023-05-10T04:23:27;7.70;99.90
34985;DHT22;21190;58.750;17.004;2023-05-10T04:26:01;7.80;99.90
34985;DHT22;21190;58.750;17.004;2023-05-10T04:28:28;7.80;99.90
34985;DHT22;21190;58.750;17.004;2023-05-10T04:31:06;7.90;99.90
34985;DHT22;21190;58.750;17.004;2023-05-10T04:33:33;7.90;99.90
34985;DHT22;21190;58.750;17.004;2023-05-10T04:36:01;8.00;99.90
34985;DHT22;21190;58.750;17.004;2023-05-10T04:38:28;8.00;99.90
34985;DHT22;21190;58.750;17.004;2023-05-10T04:41:04;8.10;99.90
34985;DHT22;21190;58.750;17.004;2023-05-10T04:43:31;8.10;99.90
34985;DHT22;21190;58.750;17.004;2023-05-10T04:45:58;8.10;99.90
34985;DHT22;21190;58.750;17.004;2023-05-10T04:48:25;8.20;99.90
34985;DHT22;21190;58.750;17.004;2023-05-10T04:50:52;8.20;99.90
34985;DHT22;21190;58.750;17.004;2023-05-10T04:53:19;8.30;99.90
34985;DHT22;21190;58.750;17.004;2023-05-10T04:55:46;8.30;99.90
34985;DHT22;21190;58.750;17.004;2023-05-10T04:58:14;8.40;99.90
34985;DHT22;21190;58.750;17.004;2023-05-10T05:00:41;8.40;99.90
34985;DHT22;21190;58.750;17.004;2023-05-10T05:03:09;8.50;99.90
34985;DHT22;21190;58.750;17.004;2023-05-10T05:05:36;8.50;99.90
34985;DHT22;21190;58.750;17.004;2023-05-10T05:08:03;8.60;99.90
34985;DHT22;21190;58.750;17.004;2023-05-10T05:10:30;8.70;99.90
34985;DHT22;21190;58.750;17.004;2023-05-10T05:12:57;8.80;99.90
34985;DHT22;21190;58.750;17.004;2023-05-10T05:15:24;8.80;99.90
34985;DHT22;21190;58.750;17.004;2023-05-10T05:17:51;8.90;99.90
34985;DHT22;21190;58.750;17.004;2023-05-10T05:20:18;8.90;99.90
34985;DHT22;21190;58.750;17.004;2023-05-10T05:22:45;9.00;99.90
34985;DHT22;21190;58.750;17.004;2023-05-10T05:25:12;9.00;99.90
34985;DHT22;21190;58.750;17.004;2023-05-10T05:27:39;9.10;99.90
34985;DHT22;21190;58.750;17.004;2023-05-10T05:30:06;9.10;99.90
34985;DHT22;21190;58.750;17.004;2023-05-10T05:32:33;9.20;99.90
34985;DHT22;21190;58.750;17.004;2023-05-10T05:35:00;9.20;99.90
34985;DHT22;21190;58.750;17.004;2023-05-10T05:37:27;9.30;99.90
34985;DHT22;21190;58.750;17.004;2023-05-10T05:39:54;9.30;99.90
34985;DHT22;21190;58.750;17.004;2023-05-10T05:42:21;9.40;99.90
34985;DHT22;21190;58.750;17.004;2023-05-10T05:44:48;9.50;99.90
34985;DHT22;21190;58.750;17.004;2023-05-10T05:47:15;9.50;99.90
34985;DHT22;21190;58.750;17.004;2023-05-10T05:49:42;9.50;99.90
34985;DHT22;21190;58.750;17.004;2023-05-10T05:52:12;9.60;99.90
34985;DHT22;21190;58.750;17.004;2023-05-10T05:54:39;9.60;99.90
34985;DHT22;21190;58.750;17.004;2023-05-10T05:57:06;9.70;99.90
34985;DHT22;21190;58.750;17.004;2023-05-10T05:59:34;9.70;99.90
34985;DHT22;21190;58.750;17.004;2023-05-10T06:02:00;9.80;99.90
34985;DHT22;21190;58.750;17.004;2023-05-10T06:04:28;9.80;99.90
34985;DHT22;21190;58.750;17.004;2023-05-10T06:06:55;9.90;99.90
34985;DHT22;21190;58.750;17.004;2023-05-10T06:09:22;10.00;99.90
34985;DHT22;21190;58.750;17.004;2023-05-10T06:11:51;10.00;99.90
34985;DHT22;21190;58.750;17.004;2023-05-10T06:14:20;10.00;99.90
34985;DHT22;21190;58.750;17.004;2023-05-10T06:16:47;10.00;99.90
34985;DHT22;21190;58.750;17.004;2023-05-10T06:19:14;10.00;99.90
34985;DHT22;21190;58.750;17.004;2023-05-10T06:21:41;10.10;99.90
34985;DHT22;21190;58.750;17.004;2023-05-10T06:24:07;10.10;99.90
34985;DHT22;21190;58.750;17.004;2023-05-10T06:26:34;10.10;99.90
34985;DHT22;21190;58.750;17.004;2023-05-10T06:29:01;10.20;99.90
34985;DHT22;21190;58.750;17.004;2023-05-10T06:31:29;10.20;99.90
34985;DHT22;21190;58.750;17.004;2023-05-10T06:33:56;10.30;99.90
34985;DHT22;21190;58.750;17.004;2023-05-10T06:36:24;10.30;99.90
34985;DHT22;21190;58.750;17.004;2023-05-10T06:38:53;10.30;99.90
34985;DHT22;21190;58.750;17.004;2023-05-10T06:41:20;10.40;99.90
34985;DHT22;21190;58.750;17.004;2023-05-10T06:43:50;10.40;99.90
34985;DHT22;21190;58.750;17.004;2023-05-10T06:46:17;10.50;99.90
34985;DHT22;21190;58.750;17.004;2023-05-10T06:48:44;10.50;99.90
34985;DHT22;21190;58.750;17.004;2023-05-10T06:51:11;10.60;99.90
34985;DHT22;21190;58.750;17.004;2023-05-10T06:53:38;10.60;99.90
34985;DHT22;21190;58.750;17.004;2023-05-10T06:56:05;10.60;99.90
34985;DHT22;21190;58.750;17.004;2023-05-10T06:58:32;10.70;99.90
34985;DHT22;21190;58.750;17.004;2023-05-10T07:01:03;10.70;99.90
34985;DHT22;21190;58.750;17.004;2023-05-10T07:03:31;10.80;99.90
34985;DHT22;21190;58.750;17.004;2023-05-10T07:06:02;10.80;99.90
34985;DHT22;21190;58.750;17.004;2023-05-10T07:08:44;10.90;99.90
34985;DHT22;21190;58.750;17.004;2023-05-10T07:11:11;10.90;99.90
34985;DHT22;21190;58.750;17.004;2023-05-10T07:13:38;10.90;99.90
34985;DHT22;21190;58.750;17.004;2023-05-10T07:16:07;11.00;99.90
34985;DHT22;21190;58.750;17.004;2023-05-10T07:18:35;11.10;99.90
34985;DHT22;21190;58.750;17.004;2023-05-10T07:21:02;11.10;99.90
34985;DHT22;21190;58.750;17.004;2023-05-10T07:23:29;11.20;99.90
34985;DHT22;21190;58.750;17.004;2023-05-10T07:25:56;11.30;99.90
34985;DHT22;21190;58.750;17.004;2023-05-10T07:28:24;11.30;99.90
34985;DHT22;21190;58.750;17.004;2023-05-10T07:30:51;11.30;99.90
34985;DHT22;21190;58.750;17.004;2023-05-10T07:33:18;11.30;99.90
34985;DHT22;21190;58.750;17.004;2023-05-10T07:35:45;11.40;99.90
34985;DHT22;21190;58.750;17.004;2023-05-10T07:38:11;11.50;99.90
34985;DHT22;21190;58.750;17.004;2023-05-10T07:40:39;11.50;99.90
34985;DHT22;21190;58.750;17.004;2023-05-10T07:43:06;11.50;99.90
34985;DHT22;21190;58.750;17.004;2023-05-10T07:45:33;11.60;99.90
34985;DHT22;21190;58.750;17.004;2023-05-10T07:48:01;11.70;99.90
34985;DHT22;21190;58.750;17.004;2023-05-10T07:50:28;11.80;99.90
34985;DHT22;21190;58.750;17.004;2023-05-10T07:52:55;11.80;99.90
34985;DHT22;21190;58.750;17.004;2023-05-10T07:55:22;11.80;99.90
34985;DHT22;21190;58.750;17.004;2023-05-10T07:57:49;11.90;99.90
34985;DHT22;21190;58.750;17.004;2023-05-10T08:00:19;12.00;99.90
34985;DHT22;21190;58.750;17.004;2023-05-10T08:02:47;12.00;99.90
34985;DHT22;21190;58.750;17.004;2023-05-10T08:05:15;12.10;99.90
34985;DHT22;21190;58.750;17.004;2023-05-10T08:07:42;12.10;99.90
34985;DHT22;21190;58.750;17.004;2023-05-10T08:10:11;12.20;99.90
34985;DHT22;21190;58.750;17.004;2023-05-10T08:12:38;12.20;99.90
34985;DHT22;21190;58.750;17.004;2023-05-10T08:15:05;12.30;99.90
34985;DHT22;21190;58.750;17.004;2023-05-10T08:17:33;12.30;99.90
34985;DHT22;21190;58.750;17.004;2023-05-10T08:20:00;12.30;99.90
34985;DHT22;21190;58.750;17.004;2023-05-10T08:22:27;12.40;99.90
34985;DHT22;21190;58.750;17.004;2023-05-10T08:24:54;12.40;99.90
34985;DHT22;21190;58.750;17.004;2023-05-10T08:27:21;12.50;99.90
34985;DHT22;21190;58.750;17.004;2023-05-10T08:29:48;12.50;99.90
34985;DHT22;21190;58.750;17.004;2023-05-10T08:32:17;12.50;99.90
34985;DHT22;21190;58.750;17.004;2023-05-10T08:34:44;12.50;99.90
34985;DHT22;21190;58.750;17.004;2023-05-10T08:37:11;12.50;99.90
34985;DHT22;21190;58.750;17.004;2023-05-10T08:39:40;12.60;99.90
34985;DHT22;21190;58.750;17.004;2023-05-10T08:42:07;12.60;99.90
34985;DHT22;21190;58.750;17.004;2023-05-10T08:44:36;12.70;99.90
34985;DHT22;21190;58.750;17.004;2023-05-10T08:47:06;12.70;99.90
34985;DHT22;21190;58.750;17.004;2023-05-10T08:49:34;12.70;99.90
34985;DHT22;21190;58.750;17.004;2023-05-10T08:52:03;12.80;99.90
34985;DHT22;21190;58.750;17.004;2023-05-10T08:54:34;12.90;99.90
34985;DHT22;21190;58.750;17.004;2023-05-10T08:57:01;12.90;99.90
34985;DHT22;21190;58.750;17.004;2023-05-10T08:59:28;13.00;99.90
34985;DHT22;21190;58.750;17.004;2023-05-10T09:01:58;13.00;99.90
34985;DHT22;21190;58.750;17.004;2023-05-10T09:04:26;13.20;99.90
34985;DHT22;21190;58.750;17.004;2023-05-10T09:06:54;13.20;99.90
34985;DHT22;21190;58.750;17.004;2023-05-10T09:09:21;13.30;99.90
34985;DHT22;21190;58.750;17.004;2023-05-10T09:11:48;13.30;99.90
34985;DHT22;21190;58.750;17.004;2023-05-10T09:14:15;13.30;99.90
34985;DHT22;21190;58.750;17.004;2023-05-10T09:16:43;13.40;99.90
34985;DHT22;21190;58.750;17.004;2023-05-10T09:19:11;13.40;99.90
34985;DHT22;21190;58.750;17.004;2023-05-10T09:21:38;13.40;99.90
34985;DHT22;21190;58.750;17.004;2023-05-10T09:24:06;13.50;99.90
34985;DHT22;21190;58.750;17.004;2023-05-10T09:26:34;13.50;99.90
34985;DHT22;21190;58.750;17.004;2023-05-10T09:29:02;13.50;99.90
34985;DHT22;21190;58.750;17.004;2023-05-10T09:31:49;13.50;99.90
34985;DHT22;21190;58.750;17.004;2023-05-10T09:34:29;13.60;99.90
34985;DHT22;21190;58.750;17.004;2023-05-10T09:36:59;13.70;99.90
34985;DHT22;21190;58.750;17.004;2023-05-10T09:39:35;13.70;99.90
34985;DHT22;21190;58.750;17.004;2023-05-10T09:42:05;13.70;99.90
34985;DHT22;21190;58.750;17.004;2023-05-10T09:44:32;13.80;99.90
34985;DHT22;21190;58.750;17.004;2023-05-10T09:47:00;13.80;99.90
34985;DHT22;21190;58.750;17.004;2023-05-10T09:49:28;13.80;99.90
34985;DHT22;21190;58.750;17.004;2023-05-10T09:52:06;13.80;99.90
34985;DHT22;21190;58.750;17.004;2023-05-10T09:54:34;14.00;99.90
34985;DHT22;21190;58.750;17.004;2023-05-10T09:57:01;14.00;99.90
34985;DHT22;21190;58.750;17.004;2023-05-10T09:59:29;14.10;99.90
34985;DHT22;21190;58.750;17.004;2023-05-10T10:01:57;14.10;99.90
34985;DHT22;21190;58.750;17.004;2023-05-10T10:04:25;14.10;99.90
34985;DHT22;21190;58.750;17.004;2023-05-10T10:07:03;14.10;99.90
34985;DHT22;21190;58.750;17.004;2023-05-10T10:09:31;14.20;99.90
34985;DHT22;21190;58.750;17.004;2023-05-10T10:11:59;14.20;99.90
34985;DHT22;21190;58.750;17.004;2023-05-10T10:14:26;14.30;99.90
34985;DHT22;21190;58.750;17.004;2023-05-10T10:16:53;14.30;99.90
34985;DHT22;21190;58.750;17.004;2023-05-10T10:19:33;14.30;99.90
34985;DHT22;21190;58.750;17.004;2023-05-10T10:22:02;14.40;99.90
34985;DHT22;21190;58.750;17.004;2023-05-10T10:24:29;14.40;99.90
34985;DHT22;21190;58.750;17.004;2023-05-10T10:27:05;14.50;99.90
34985;DHT22;21190;58.750;17.004;2023-05-10T10:29:42;14.60;99.90
34985;DHT22;21190;58.750;17.004;2023-05-10T10:33:01;14.60;99.90
34985;DHT22;21190;58.750;17.004;2023-05-10T10:35:52;14.60;99.90
34985;DHT22;21190;58.750;17.004;2023-05-10T10:38:20;14.70;99.90
34985;DHT22;21190;58.750;17.004;2023-05-10T10:40:47;14.70;99.90
34985;DHT22;21190;58.750;17.004;2023-05-10T10:43:27;14.70;99.90
34985;DHT22;21190;58.750;17.004;2023-05-10T10:48:50;14.80;99.90
34985;DHT22;21190;58.750;17.004;2023-05-10T10:51:18;14.80;99.90
34985;DHT22;21190;58.750;17.004;2023-05-10T10:53:47;14.80;99.90
34985;DHT22;21190;58.750;17.004;2023-05-10T10:56:14;14.70;99.90
34985;DHT22;21190;58.750;17.004;2023-05-10T10:58:49;14.70;99.90
34985;DHT22;21190;58.750;17.004;2023-05-10T11:01:18;14.70;99.90
34985;DHT22;21190;58.750;17.004;2023-05-10T11:06:35;14.70;99.90
34985;DHT22;21190;58.750;17.004;2023-05-10T11:09:11;14.80;99.90
34985;DHT22;21190;58.750;17.004;2023-05-10T11:11:54;14.90;99.90
34985;DHT22;21190;58.750;17.004;2023-05-10T11:14:25;14.90;99.90
34985;DHT22;21190;58.750;17.004;2023-05-10T11:16:52;14.90;99.90
34985;DHT22;21190;58.750;17.004;2023-05-10T11:19:19;14.90;99.90
34985;DHT22;21190;58.750;17.004;2023-05-10T11:24:33;14.90;99.90
34985;DHT22;21190;58.750;17.004;2023-05-10T11:27:00;14.90;99.90
34985;DHT22;21190;58.750;17.004;2023-05-10T11:29:27;14.90;99.90
34985;DHT22;21190;58.750;17.004;2023-05-10T11:31:57;14.90;99.90
34985;DHT22;21190;58.750;17.004;2023-05-10T11:34:30;15.00;99.90
34985;DHT22;21190;58.750;17.004;2023-05-10T11:36:58;15.00;99.90
34985;DHT22;21190;58.750;17.004;2023-05-10T11:39:28;15.10;99.90
34985;DHT22;21190;58.750;17.004;2023-05-10T11:41:56;15.10;99.90
34985;DHT22;21190;58.750;17.004;2023-05-10T11:44:28;15.20;99.90
34985;DHT22;21190;58.750;17.004;2023-05-10T11:46:59;15.20;99.90
34985;DHT22;21190;58.750;17.004;2023-05-10T11:49:26;15.20;99.90
34985;DHT22;21190;58.750;17.004;2023-05-10T11:51:53;15.20;99.90
34985;DHT22;21190;58.750;17.004;2023-05-10T11:54:29;15.30;99.90
34985;DHT22;21190;58.750;17.004;2023-05-10T11:56:57;15.40;99.90
34985;DHT22;21190;58.750;17.004;2023-05-10T11:59:25;15.50;99.90
34985;DHT22;21190;58.750;17.004;2023-05-10T12:01:52;15.50;99.90
34985;DHT22;21190;58.750;17.004;2023-05-10T12:04:19;15.60;99.90
34985;DHT22;21190;58.750;17.004;2023-05-10T12:06:47;15.60;99.90
34985;DHT22;21190;58.750;17.004;2023-05-10T12:09:14;15.50;99.90
34985;DHT22;21190;58.750;17.004;2023-05-10T12:11:43;15.60;99.90
34985;DHT22;21190;58.750;17.004;2023-05-10T12:14:10;15.60;99.90
34985;DHT22;21190;58.750;17.004;2023-05-10T12:16:37;15.60;99.90
34985;DHT22;21190;58.750;17.004;2023-05-10T12:19:04;15.60;99.90
34985;DHT22;21190;58.750;17.004;2023-05-10T12:21:32;15.60;99.90
34985;DHT22;21190;58.750;17.004;2023-05-10T12:24:02;15.70;99.90
34985;DHT22;21190;58.750;17.004;2023-05-10T12:26:30;15.70;99.10
34985;DHT22;21190;58.750;17.004;2023-05-10T12:29:16;15.80;99.60
34985;DHT22;21190;58.750;17.004;2023-05-10T12:31:53;15.80;99.90
34985;DHT22;21190;58.750;17.004;2023-05-10T12:34:31;15.80;99.10
34985;DHT22;21190;58.750;17.004;2023-05-10T12:37:00;15.80;98.40
34985;DHT22;21190;58.750;17.004;2023-05-10T12:39:42;15.80;98.20
34985;DHT22;21190;58.750;17.004;2023-05-10T12:42:10;15.70;97.60
34985;DHT22;21190;58.750;17.004;2023-05-10T12:44:37;15.70;97.50
34985;DHT22;21190;58.750;17.004;2023-05-10T12:47:04;15.60;97.10
34985;DHT22;21190;58.750;17.004;2023-05-10T12:49:31;15.50;97.50
34985;DHT22;21190;58.750;17.004;2023-05-10T12:51:58;15.50;97.20
34985;DHT22;21190;58.750;17.004;2023-05-10T12:54:25;15.50;96.40
34985;DHT22;21190;58.750;17.004;2023-05-10T12:56:52;15.50;96.80
34985;DHT22;21190;58.750;17.004;2023-05-10T12:59:19;15.50;96.40
34985;DHT22;21190;58.750;17.004;2023-05-10T13:01:46;15.50;96.00
34985;DHT22;21190;58.750;17.004;2023-05-10T13:04:13;15.50;96.10
34985;DHT22;21190;58.750;17.004;2023-05-10T13:06:40;15.50;96.30
34985;DHT22;21190;58.750;17.004;2023-05-10T13:09:07;15.60;95.20
34985;DHT22;21190;58.750;17.004;2023-05-10T13:11:34;15.50;95.20
34985;DHT22;21190;58.750;17.004;2023-05-10T13:14:01;15.40;94.80
34985;DHT22;21190;58.750;17.004;2023-05-10T13:16:29;15.40;95.20
34985;DHT22;21190;58.750;17.004;2023-05-10T13:18:57;15.40;95.70
34985;DHT22;21190;58.750;17.004;2023-05-10T13:21:25;15.40;94.80
34985;DHT22;21190;58.750;17.004;2023-05-10T13:23:53;15.40;94.80
34985;DHT22;21190;58.750;17.004;2023-05-10T13:26:20;15.50;94.70
34985;DHT22;21190;58.750;17.004;2023-05-10T13:28:46;15.50;94.60
34985;DHT22;21190;58.750;17.004;2023-05-10T13:31:15;15.50;94.40
34985;DHT22;21190;58.750;17.004;2023-05-10T13:33:42;15.50;94.40
34985;DHT22;21190;58.750;17.004;2023-05-10T13:36:09;15.40;94.10
34985;DHT22;21190;58.750;17.004;2023-05-10T13:38:36;15.40;94.10
34985;DHT22;21190;58.750;17.004;2023-05-10T13:41:04;15.40;94.60
34985;DHT22;21190;58.750;17.004;2023-05-10T13:43:31;15.40;94.50
34985;DHT22;21190;58.750;17.004;2023-05-10T13:45:58;15.50;93.80
34985;DHT22;21190;58.750;17.004;2023-05-10T13:48:25;15.50;94.80
34985;DHT22;21190;58.750;17.004;2023-05-10T13:50:52;15.50;94.50
34985;DHT22;21190;58.750;17.004;2023-05-10T13:53:19;15.60;94.90
34985;DHT22;21190;58.750;17.004;2023-05-10T13:55:46;15.70;94.60
34985;DHT22;21190;58.750;17.004;2023-05-10T13:58:13;15.70;94.30
34985;DHT22;21190;58.750;17.004;2023-05-10T14:00:40;15.70;94.50
34985;DHT22;21190;58.750;17.004;2023-05-10T14:03:07;15.80;94.50
34985;DHT22;21190;58.750;17.004;2023-05-10T14:05:38;15.80;94.60
34985;DHT22;21190;58.750;17.004;2023-05-10T14:08:05;15.80;94.50
34985;DHT22;21190;58.750;17.004;2023-05-10T14:10:32;15.80;94.20
34985;DHT22;21190;58.750;17.004;2023-05-10T14:12:58;15.80;93.90
34985;DHT22;21190;58.750;17.004;2023-05-10T14:15:25;15.80;94.00
34985;DHT22;21190;58.750;17.004;2023-05-10T14:17:52;15.70;93.90
34985;DHT22;21190;58.750;17.004;2023-05-10T14:20:19;15.70;94.00
34985;DHT22;21190;58.750;17.004;2023-05-10T14:22:46;15.70;94.60
34985;DHT22;21190;58.750;17.004;2023-05-10T14:25:14;15.80;94.60
34985;DHT22;21190;58.750;17.004;2023-05-10T14:27:42;15.80;93.40
34985;DHT22;21190;58.750;17.004;2023-05-10T14:30:09;15.80;93.50
34985;DHT22;21190;58.750;17.004;2023-05-10T14:32:36;15.90;93.90
34985;DHT22;21190;58.750;17.004;2023-05-10T14:35:04;15.90;93.50
34985;DHT22;21190;58.750;17.004;2023-05-10T14:37:32;16.00;94.00
34985;DHT22;21190;58.750;17.004;2023-05-10T14:40:00;16.10;93.60
34985;DHT22;21190;58.750;17.004;2023-05-10T14:42:27;16.20;94.00
34985;DHT22;21190;58.750;17.004;2023-05-10T14:44:55;16.30;94.00
34985;DHT22;21190;58.750;17.004;2023-05-10T14:47:21;16.40;93.50
34985;DHT22;21190;58.750;17.004;2023-05-10T14:49:48;16.50;92.90
34985;DHT22;21190;58.750;17.004;2023-05-10T14:52:15;16.50;93.10
34985;DHT22;21190;58.750;17.004;2023-05-10T14:54:43;16.50;93.50
34985;DHT22;21190;58.750;17.004;2023-05-10T14:57:10;16.50;93.30
34985;DHT22;21190;58.750;17.004;2023-05-10T14:59:37;16.60;92.90
34985;DHT22;21190;58.750;17.004;2023-05-10T15:02:04;16.60;93.40
34985;DHT22;21190;58.750;17.004;2023-05-10T15:04:31;16.60;92.90
34985;DHT22;21190;58.750;17.004;2023-05-10T15:06:59;16.60;93.60
34985;DHT22;21190;58.750;17.004;2023-05-10T15:09:26;16.70;93.00
34985;DHT22;21190;58.750;17.004;2023-05-10T15:11:55;16.80;92.80
34985;DHT22;21190;58.750;17.004;2023-05-10T15:14:22;16.80;93.00
34985;DHT22;21190;58.750;17.004;2023-05-10T15:16:49;16.90;93.10
34985;DHT22;21190;58.750;17.004;2023-05-10T15:19:16;17.00;92.80
34985;DHT22;21190;58.750;17.004;2023-05-10T15:21:43;17.10;93.30
34985;DHT22;21190;58.750;17.004;2023-05-10T15:24:11;17.20;93.20
34985;DHT22;21190;58.750;17.004;2023-05-10T15:26:38;17.30;93.50
34985;DHT22;21190;58.750;17.004;2023-05-10T15:29:05;17.30;93.30
34985;DHT22;21190;58.750;17.004;2023-05-10T15:31:32;17.40;93.30
34985;DHT22;21190;58.750;17.004;2023-05-10T15:34:01;17.40;92.50
34985;DHT22;21190;58.750;17.004;2023-05-10T15:36:28;16.80;93.10
34985;DHT22;21190;58.750;17.004;2023-05-10T15:38:55;16.90;93.40
34985;DHT22;21190;58.750;17.004;2023-05-10T15:41:22;17.00;93.10
34985;DHT22;21190;58.750;17.004;2023-05-10T15:43:50;17.10;93.30
34985;DHT22;21190;58.750;17.004;2023-05-10T15:46:17;17.10;93.30
34985;DHT22;21190;58.750;17.004;2023-05-10T15:48:44;17.00;93.10
34985;DHT22;21190;58.750;17.004;2023-05-10T15:51:11;17.00;92.80
34985;DHT22;21190;58.750;17.004;2023-05-10T15:53:38;17.00;92.30